Armington, IL (61721)

5:29 PM CDT on August 28, 2016 (GMT -0500)
BFE Armington | | Change Station

Elev 627 ft 40.34 °N, 89.31 °W | Updated 21 minutes ago

Scattered Clouds
Scattered Clouds
80.6 °F
Feels Like 85 °F
N
6.8
Wind Variable Wind from East

Today
High -- | Low -- °F
--% Chance of Precip.
Yesterday
High -- | Low -- °F
Precip. -- in
Pressure 30.14 in
Visibility 10.0 miles
Clouds Scattered Clouds 8000 ft
Scattered Clouds 12000 ft
Heat Index 85 °F
Dew Point 72 °F
Humidity 75%
Rainfall 0.00 in
Snow Depth Not available.
6:21 AM 7:34 PM
Waning Crescent, 13% visible
METAR KAAA 282215Z AUTO 03013G17KT 10SM SCT080 SCT120 30/23 A3014 RMK AO2 LTG DSNT N T03000233
Pressure 30.14 in
Visibility 10.0 miles
Clouds Scattered Clouds 8000 ft
Scattered Clouds 12000 ft
Heat Index 85 °F
Dew Point 72 °F
Humidity 75%
Rainfall 0.00 in
Snow Depth Not available.
6:21 AM 7:34 PM
Waning Crescent, 13% visible
METAR KAAA 282215Z AUTO 03013G17KT 10SM SCT080 SCT120 30/23 A3014 RMK AO2 LTG DSNT N T03000233

10-Day Weather Forecast

Almanac

Astronomy

Aug. 28, 2016 Rise Set
Actual Time
Civil Twilight
Nautical Twilight
Astronomical Twilight
Moon
Length of Visible Light
Length of Day
Tomorrow will be .
, % of the Moon is Illuminated

Today's Extremes

State Highs State Lows

Community

WunderPhotos

Upload Photos

1,935,705 photos uploaded!

WunderBlog® & News

Nearby

Air Quality

  Air Quality AQ Index Pollutant
Not available.

Snow Depth

Station Depth Elevation

Earthquake Activity

City Distance Mag. Time & Date
Minimum magnitude displayed is 2.5.

Coastal Water Temperatures

Place Temperature

Stations

Nearby Weather Stations

Station Location Temp. Windchill Dew Point Humidity Wind Precip. Elev Updated Type
                   

Watches & Warnings

There are currently no watches in effect.